createdAt,value
2018-12-06T00:00:07.414Z,96034.69
2018-12-06T00:05:53.090Z,96010.77
2018-12-06T00:08:22.399Z,96016.11
2018-12-06T00:10:51.727Z,96002.36
2018-12-06T00:13:21.052Z,96027.91
2018-12-06T00:15:50.145Z,96013.66
2018-12-06T00:18:19.339Z,96026.06
2018-12-06T00:20:49.660Z,96006.44
2018-12-06T00:23:18.847Z,96024.02
2018-12-06T00:25:48.034Z,96015.58
2018-12-06T00:28:17.342Z,96017.93
2018-12-06T00:30:46.592Z,96020.59
2018-12-06T00:33:15.981Z,96010.68
2018-12-06T00:35:45.073Z,96008.13
2018-12-06T00:38:14.244Z,96027.19
2018-12-06T00:40:43.484Z,96013.03
2018-12-06T00:43:12.778Z,96027.12
2018-12-06T00:45:42.078Z,96055.59
2018-12-06T00:48:11.203Z,96052.61
2018-12-06T00:50:40.464Z,96035.64
2018-12-06T00:53:09.626Z,96030.31
2018-12-06T00:55:38.737Z,96044.53
2018-12-06T00:58:08.117Z,96048.19
2018-12-06T01:00:37.297Z,96055.20
2018-12-06T01:03:06.420Z,96072.38
2018-12-06T01:05:35.631Z,96076.91
2018-12-06T01:08:05.067Z,96108.28
2018-12-06T01:10:34.140Z,96114.45
2018-12-06T01:13:03.503Z,96106.31
2018-12-06T01:15:32.623Z,96101.11
2018-12-06T01:18:01.731Z,96099.75
2018-12-06T01:20:30.916Z,96094.98
2018-12-06T01:23:00.155Z,96090.80
2018-12-06T01:25:29.459Z,96083.86
2018-12-06T01:27:58.591Z,96077.77
2018-12-06T01:30:29.480Z,96073.16
2018-12-06T01:32:58.580Z,96068.59
2018-12-06T01:35:27.687Z,96071.33
2018-12-06T01:37:56.793Z,96072.17
2018-12-06T01:40:25.894Z,96063.82
2018-12-06T01:42:54.982Z,96060.36
2018-12-06T01:45:24.174Z,96068.03
2018-12-06T01:47:53.316Z,96090.86
2018-12-06T01:50:22.454Z,96083.37
2018-12-06T01:52:51.556Z,96089.72
2018-12-06T01:55:20.777Z,96039.63
2018-12-06T01:57:49.945Z,96105.58
2018-12-06T02:00:19.132Z,96109.67
2018-12-06T02:02:48.367Z,96121.27
2018-12-06T02:05:17.681Z,96125.72
2018-12-06T02:07:46.793Z,96110.70
2018-12-06T02:10:15.887Z,96118.77
2018-12-06T02:12:45.044Z,96109.97
2018-12-06T02:15:14.375Z,96107.76
2018-12-06T02:17:43.480Z,96106.06
2018-12-06T02:20:12.593Z,96108.33
2018-12-06T02:22:41.796Z,96098.78
2018-12-06T02:25:10.995Z,96095.23
2018-12-06T02:27:40.132Z,96079.53
2018-12-06T02:30:09.504Z,96084.15
2018-12-06T02:32:38.622Z,96083.86
2018-12-06T02:35:07.855Z,96078.75
2018-12-06T02:37:36.952Z,96079.66
2018-12-06T02:40:07.132Z,96088.16
2018-12-06T02:42:36.565Z,96090.39
2018-12-06T02:45:05.967Z,96079.56
2018-12-06T02:47:35.063Z,96079.69
2018-12-06T02:50:04.582Z,96076.89
2018-12-06T02:52:33.706Z,96071.80
2018-12-06T02:55:02.814Z,96073.66
2018-12-06T02:57:31.971Z,96074.28
2018-12-06T03:00:01.191Z,96067.77
2018-12-06T03:02:30.285Z,96058.16
2018-12-06T03:04:59.419Z,96051.98
2018-12-06T03:07:28.538Z,96043.64
2018-12-06T03:09:57.905Z,96038.02
2018-12-06T03:12:27.134Z,96029.72
2018-12-06T03:14:56.230Z,96018.27
2018-12-06T03:17:25.557Z,96004.13
2018-12-06T03:19:54.896Z,96003.80
2018-12-06T03:22:24.059Z,96010.72
2018-12-06T03:24:53.153Z,96017.27
2018-12-06T03:27:22.290Z,96023.37
2018-12-06T03:29:51.419Z,96019.23
2018-12-06T03:32:20.637Z,96016.45
2018-12-06T03:34:49.964Z,96018.60
2018-12-06T03:37:19.051Z,96013.30
2018-12-06T03:39:48.140Z,96014.12
2018-12-06T03:42:17.294Z,96012.44
2018-12-06T03:44:46.400Z,96011.34
2018-12-06T03:47:15.502Z,96008.58
2018-12-06T03:49:44.651Z,96008.13
2018-12-06T03:52:13.904Z,96015.11
2018-12-06T03:54:43.029Z,96021.83
2018-12-06T03:57:12.189Z,96012.98
2018-12-06T03:59:41.326Z,96010.20
2018-12-06T04:02:10.424Z,96010.48
2018-12-06T04:04:39.620Z,96005.70
2018-12-06T04:07:08.728Z,95999.95
2018-12-06T04:09:37.825Z,96002.42
2018-12-06T04:12:06.949Z,95997.74
2018-12-06T04:14:36.043Z,95993.64
2018-12-06T04:17:05.154Z,95981.09
2018-12-06T04:19:34.264Z,95979.22
2018-12-06T04:22:03.372Z,95984.97
2018-12-06T04:24:32.469Z,95989.65
2018-12-06T04:27:01.599Z,95990.36
2018-12-06T04:29:30.687Z,95985.91
2018-12-06T04:31:59.766Z,95995.30
2018-12-06T04:34:28.902Z,95988.63
2018-12-06T04:36:57.995Z,95981.59
2018-12-06T04:39:27.088Z,95973.50
2018-12-06T04:41:56.317Z,95966.23
2018-12-06T04:44:25.424Z,95959.88
2018-12-06T04:46:54.536Z,95959.28
2018-12-06T04:49:23.698Z,95954.24
2018-12-06T04:51:52.811Z,95969.26
2018-12-06T04:54:21.905Z,95966.81
2018-12-06T04:56:51.050Z,95969.84
2018-12-06T04:59:20.180Z,95975.14
2018-12-06T05:01:49.255Z,95971.96
2018-12-06T05:04:18.470Z,95970.44
2018-12-06T05:06:47.571Z,95973.95
2018-12-06T05:09:16.719Z,95972.08
2018-12-06T05:11:46.075Z,95977.59
2018-12-06T05:14:15.171Z,95983.02
2018-12-06T05:16:44.529Z,95992.05
2018-12-06T05:19:13.643Z,95984.52
2018-12-06T05:21:42.736Z,95993.45
2018-12-06T05:24:11.962Z,96000.25
2018-12-06T05:26:41.204Z,96003.42
2018-12-06T05:29:10.395Z,95973.20
2018-12-06T05:31:39.486Z,95977.75
2018-12-06T05:34:08.756Z,96016.30
2018-12-06T05:36:37.869Z,96024.42
2018-12-06T05:39:07.855Z,96012.56
2018-12-06T05:41:36.956Z,96023.35
2018-12-06T05:44:06.048Z,96015.16
2018-12-06T05:46:35.130Z,96009.55
2018-12-06T05:49:04.246Z,96012.34
2018-12-06T05:51:33.437Z,96006.11
2018-12-06T05:54:02.547Z,96001.45
2018-12-06T05:56:31.695Z,95996.97
2018-12-06T05:59:04.877Z,96003.06
2018-12-06T06:01:39.965Z,96009.29
2018-12-06T06:04:09.195Z,96017.95
2018-12-06T06:06:38.280Z,96025.83
2018-12-06T06:09:07.927Z,96024.99
2018-12-06T06:11:37.032Z,96029.34
2018-12-06T06:14:06.263Z,96023.12
2018-12-06T06:16:35.383Z,96016.20
2018-12-06T06:19:04.626Z,96018.65
2018-12-06T06:21:34.741Z,96023.84
2018-12-06T06:24:04.070Z,96033.45
2018-12-06T06:26:33.167Z,96027.36
2018-12-06T06:29:02.258Z,96035.48
2018-12-06T06:31:31.390Z,96029.03
2018-12-06T06:34:00.520Z,96036.66
2018-12-06T06:36:29.650Z,96044.61
2018-12-06T06:38:58.790Z,96042.03
2018-12-06T06:41:27.987Z,96047.81
2018-12-06T06:43:57.120Z,96055.72
2018-12-06T06:46:26.376Z,96056.56
2018-12-06T06:48:55.462Z,96069.61
2018-12-06T06:51:24.712Z,96069.69
2018-12-06T06:53:53.856Z,96076.14
2018-12-06T06:56:23.055Z,96082.97
2018-12-06T06:58:52.186Z,96075.72
2018-12-06T07:01:21.348Z,96075.02
2018-12-06T07:03:50.534Z,96077.27
2018-12-06T07:06:19.644Z,96076.69
2018-12-06T07:08:48.851Z,96073.86
2018-12-06T07:11:18.223Z,96068.81
2018-12-06T07:13:47.306Z,96073.63
2018-12-06T07:16:16.428Z,96072.34
2018-12-06T07:18:45.598Z,96074.83
2018-12-06T07:21:15.803Z,96075.98
2018-12-06T07:23:45.184Z,96074.47
2018-12-06T07:26:14.295Z,96070.72
2018-12-06T07:28:49.774Z,96076.59
2018-12-06T07:31:18.931Z,96075.63
2018-12-06T07:33:48.126Z,96075.30
2018-12-06T07:36:17.254Z,96071.42
2018-12-06T07:38:50.487Z,96073.98
2018-12-06T07:41:21.307Z,96068.45
2018-12-06T07:43:50.863Z,96069.28
2018-12-06T07:46:20.958Z,96067.98
2018-12-06T07:48:52.590Z,96067.99
2018-12-06T07:51:21.718Z,96065.27
2018-12-06T07:53:50.855Z,96064.23
2018-12-06T07:56:21.087Z,96057.73
2018-12-06T07:58:51.484Z,96051.95
2018-12-06T08:01:22.659Z,96060.64
2018-12-06T08:03:51.735Z,96057.12
2018-12-06T08:06:20.819Z,96061.01
2018-12-06T08:08:49.923Z,96071.10
2018-12-06T08:11:19.584Z,96067.81
2018-12-06T08:13:48.873Z,96071.90
2018-12-06T08:16:18.001Z,96075.89
2018-12-06T08:18:47.259Z,96081.41
2018-12-06T08:21:16.577Z,96084.47
2018-12-06T08:23:46.413Z,96087.16
2018-12-06T08:26:15.515Z,96092.08
2018-12-06T08:28:45.269Z,96087.48
2018-12-06T08:31:18.615Z,96096.75
2018-12-06T08:33:47.707Z,96099.34
2018-12-06T08:36:18.407Z,96102.38
2018-12-06T08:38:47.524Z,96108.04
2018-12-06T08:41:20.101Z,96105.92
2018-12-06T08:43:49.226Z,96117.09
2018-12-06T08:46:19.716Z,96114.02
2018-12-06T08:48:50.946Z,96119.56
2018-12-06T08:51:22.456Z,96127.00
2018-12-06T08:53:54.815Z,96125.62
2018-12-06T08:56:24.015Z,96133.27
2018-12-06T08:58:53.249Z,96131.95
2018-12-06T09:01:23.350Z,96133.80
2018-12-06T09:03:57.064Z,96134.98
2018-12-06T09:06:26.196Z,96140.36
2018-12-06T09:08:55.399Z,96145.46
2018-12-06T09:11:24.735Z,96153.50
2018-12-06T09:17:16.925Z,96160.80
2018-12-06T09:19:46.763Z,96169.16
2018-12-06T09:22:20.375Z,96168.83
2018-12-06T09:24:49.533Z,96162.20
2018-12-06T09:27:18.658Z,96174.07
2018-12-06T09:29:49.124Z,96178.80
2018-12-06T09:32:18.214Z,96174.91
2018-12-06T09:34:47.302Z,96177.94
2018-12-06T09:37:16.593Z,96186.90
2018-12-06T09:39:56.799Z,96184.04
2018-12-06T09:42:31.046Z,96192.02
2018-12-06T09:45:00.248Z,96190.83
2018-12-06T09:47:34.119Z,96188.20
2018-12-06T09:50:03.447Z,96185.84
2018-12-06T09:52:32.587Z,96191.51
2018-12-06T09:55:01.792Z,96186.59
2018-12-06T09:57:31.238Z,96185.13
2018-12-06T10:00:01.432Z,96184.05
2018-12-06T10:02:31.251Z,96183.66
2018-12-06T10:05:00.375Z,96174.25
2018-12-06T10:07:30.695Z,96180.59
2018-12-06T10:09:59.828Z,96181.63
2018-12-06T10:12:29.051Z,96171.08
2018-12-06T10:14:58.429Z,96175.56
2018-12-06T10:17:27.590Z,96177.47
2018-12-06T10:19:56.775Z,96177.56
2018-12-06T10:22:26.074Z,96170.74
2018-12-06T10:24:59.054Z,96173.67
2018-12-06T10:27:32.646Z,96176.45
2018-12-06T10:30:07.248Z,96175.58
2018-12-06T10:32:39.821Z,96180.34
2018-12-06T10:35:10.134Z,96181.73
2018-12-06T10:37:43.756Z,96173.83
2018-12-06T10:40:12.858Z,96178.53
2018-12-06T10:42:45.420Z,96184.05
2018-12-06T10:45:15.410Z,96190.92
2018-12-06T10:47:44.596Z,96188.09
2018-12-06T10:50:14.280Z,96200.19
2018-12-06T10:52:43.491Z,96188.88
2018-12-06T10:55:12.846Z,96196.94
2018-12-06T10:57:41.930Z,96198.86
2018-12-06T11:00:15.347Z,96194.94
2018-12-06T11:02:48.494Z,96195.38
2018-12-06T11:05:18.181Z,96194.91
2018-12-06T11:07:47.377Z,96203.98
2018-12-06T11:10:16.455Z,96206.83
2018-12-06T11:12:46.767Z,96212.86
2018-12-06T11:15:16.885Z,96207.79
2018-12-06T11:17:51.314Z,96207.91
2018-12-06T11:20:24.095Z,96213.11
2018-12-06T11:22:55.637Z,96210.27
2018-12-06T11:25:24.759Z,96211.80
2018-12-06T11:27:53.843Z,96214.19
2018-12-06T11:30:22.955Z,96209.91
2018-12-06T11:32:52.266Z,96212.53
2018-12-06T11:35:21.423Z,96218.17
2018-12-06T11:37:50.551Z,96221.59
2018-12-06T11:40:20.891Z,96221.95
2018-12-06T11:42:49.993Z,96215.79
2018-12-06T11:45:19.174Z,96218.14
2018-12-06T11:47:48.289Z,96213.48
2018-12-06T11:50:17.380Z,96209.08
2018-12-06T11:52:47.187Z,96215.94
2018-12-06T11:55:16.346Z,96210.79
2018-12-06T11:57:45.490Z,96209.17
2018-12-06T12:00:14.787Z,96199.55
2018-12-06T12:02:44.274Z,96200.67
2018-12-06T12:05:17.765Z,96196.79
2018-12-06T12:07:46.857Z,96196.74
2018-12-06T12:10:17.854Z,96187.83
2018-12-06T12:12:46.981Z,96183.47
2018-12-06T12:15:16.075Z,96177.77
2018-12-06T12:17:45.419Z,96181.72
2018-12-06T12:20:19.678Z,96183.70
2018-12-06T12:22:48.817Z,96174.17
2018-12-06T12:25:18.071Z,96166.59
2018-12-06T12:27:47.234Z,96170.73
2018-12-06T12:30:16.345Z,96167.39
2018-12-06T12:32:47.442Z,96158.31
2018-12-06T12:35:18.838Z,96174.53
2018-12-06T12:37:48.310Z,96167.08
2018-12-06T12:40:17.914Z,96166.78
2018-12-06T12:42:47.050Z,96168.97
2018-12-06T12:45:16.250Z,96172.56
2018-12-06T12:47:45.492Z,96176.56
2018-12-06T12:50:14.806Z,96171.19
2018-12-06T12:52:44.106Z,96169.52
2018-12-06T12:55:13.408Z,96172.95
2018-12-06T12:57:42.551Z,96177.67
2018-12-06T13:00:11.905Z,96173.44
2018-12-06T13:02:41.176Z,96174.40
2018-12-06T13:05:10.404Z,96185.31
2018-12-06T13:07:39.732Z,96177.59
2018-12-06T13:10:09.040Z,96189.24
2018-12-06T13:12:38.361Z,96198.48
2018-12-06T13:15:08.326Z,96193.81
2018-12-06T13:17:37.815Z,96172.92
2018-12-06T13:20:07.620Z,96172.30
2018-12-06T13:22:37.068Z,96172.39
2018-12-06T13:25:06.872Z,96172.48
2018-12-06T13:27:36.431Z,96167.70
2018-12-06T13:30:06.125Z,96166.31
2018-12-06T13:32:35.362Z,96171.07
2018-12-06T13:35:05.395Z,96178.84
2018-12-06T13:37:34.497Z,96167.06
2018-12-06T13:40:04.004Z,96166.94
2018-12-06T13:42:33.242Z,96177.04
2018-12-06T13:45:03.562Z,96166.09
2018-12-06T13:47:33.232Z,96173.42
2018-12-06T13:50:07.860Z,96187.52
2018-12-06T13:52:36.970Z,96195.11
2018-12-06T13:55:06.490Z,96185.02
2018-12-06T13:57:35.671Z,96192.27
2018-12-06T14:00:06.406Z,96208.77
2018-12-06T14:02:35.903Z,96211.80
2018-12-06T14:05:05.219Z,96215.55
2018-12-06T14:07:37.079Z,96223.98
2018-12-06T14:10:06.303Z,96222.81
2018-12-06T14:12:40.075Z,96229.20
2018-12-06T14:15:09.371Z,96228.05
2018-12-06T14:17:38.824Z,96224.48
2018-12-06T14:20:10.271Z,96219.56
2018-12-06T14:22:39.616Z,96237.23
2018-12-06T14:25:08.956Z,96239.98
2018-12-06T14:27:39.472Z,96240.66
2018-12-06T14:30:09.010Z,96252.63
2018-12-06T14:32:38.284Z,96256.65
2018-12-06T14:35:09.898Z,96250.27
2018-12-06T14:37:39.024Z,96257.06
2018-12-06T14:40:08.573Z,96263.20
2018-12-06T14:42:37.678Z,96263.18
2018-12-06T14:45:07.582Z,96267.36
2018-12-06T14:47:36.802Z,96266.11
2018-12-06T14:50:06.957Z,96258.23
2018-12-06T14:52:36.258Z,96263.59
2018-12-06T14:55:06.753Z,96263.11
2018-12-06T14:57:36.656Z,96253.73
2018-12-06T15:00:10.287Z,96259.38
2018-12-06T15:02:39.475Z,96253.30
2018-12-06T15:05:09.879Z,96253.57
2018-12-06T15:07:39.395Z,96249.19
2018-12-06T15:10:08.995Z,96248.14
2018-12-06T15:12:41.680Z,96271.53
2018-12-06T15:15:10.944Z,96265.31
2018-12-06T15:17:41.876Z,96270.30
2018-12-06T15:20:11.082Z,96276.19
2018-12-06T15:22:40.620Z,96272.42
2018-12-06T15:25:09.736Z,96267.70
2018-12-06T15:27:39.172Z,96269.94
2018-12-06T15:30:10.085Z,96272.22
2018-12-06T15:32:39.284Z,96277.66
2018-12-06T15:35:08.679Z,96280.13
2018-12-06T15:37:38.591Z,96289.14
2018-12-06T15:40:07.896Z,96187.55
2018-12-06T15:42:37.833Z,96291.02
2018-12-06T15:45:07.246Z,96292.92
2018-12-06T15:47:36.448Z,96288.94
2018-12-06T15:50:06.076Z,96288.70
2018-12-06T15:52:35.935Z,96287.55
2018-12-06T15:55:05.722Z,96285.28
2018-12-06T15:57:34.811Z,96287.67
2018-12-06T16:00:05.476Z,96289.79
2018-12-06T16:02:34.644Z,96293.48
2018-12-06T16:05:04.988Z,96293.60
2018-12-06T16:07:34.337Z,96299.41
2018-12-06T16:10:04.470Z,96299.19
2018-12-06T16:12:33.936Z,96290.10
2018-12-06T16:15:03.560Z,96298.98
2018-12-06T16:17:32.725Z,96293.09
2018-12-06T16:20:01.955Z,96289.86
2018-12-06T16:22:31.080Z,96293.88
2018-12-06T16:25:00.453Z,96293.30
2018-12-06T16:27:31.516Z,96283.22
2018-12-06T16:30:00.981Z,96278.88
2018-12-06T16:32:30.098Z,96275.38
2018-12-06T16:34:59.272Z,96284.47
2018-12-06T16:37:28.563Z,96282.47
2018-12-06T16:40:07.605Z,96275.29
2018-12-06T16:42:37.493Z,96272.13
2018-12-06T16:45:07.192Z,96250.84
2018-12-06T16:47:36.325Z,96271.22
2018-12-06T16:50:06.487Z,96276.08
2018-12-06T16:52:36.318Z,96285.88
2018-12-06T16:55:07.210Z,96291.35
2018-12-06T16:57:36.356Z,96289.15
2018-12-06T17:00:08.833Z,96291.27
2018-12-06T17:02:37.973Z,96295.97
2018-12-06T17:05:07.801Z,96299.27
2018-12-06T17:07:37.063Z,96311.64
2018-12-06T17:10:07.461Z,96307.53
2018-12-06T17:12:36.587Z,96317.53
2018-12-06T17:15:06.346Z,96312.25
2018-12-06T17:17:35.458Z,96313.75
2018-12-06T17:20:05.580Z,96315.81
2018-12-06T17:22:34.802Z,96309.08
2018-12-06T17:25:04.484Z,96321.36
2018-12-06T17:27:33.577Z,96319.95
2018-12-06T17:30:03.424Z,96320.22
2018-12-06T17:32:33.850Z,96316.44
2018-12-06T17:35:03.056Z,96315.35
2018-12-06T17:37:32.474Z,96315.62
2018-12-06T17:40:01.564Z,96309.83
2018-12-06T17:42:30.666Z,96319.40
2018-12-06T17:45:00.438Z,96309.34
2018-12-06T17:47:30.442Z,96315.23
2018-12-06T17:49:59.580Z,96325.73
2018-12-06T17:52:28.946Z,96330.33
2018-12-06T17:54:58.104Z,96340.72
2018-12-06T17:57:27.220Z,96352.16
2018-12-06T17:59:56.448Z,96338.58
2018-12-06T18:02:25.860Z,96337.40
2018-12-06T18:04:54.941Z,96338.60
2018-12-06T18:07:24.458Z,96334.92
2018-12-06T18:09:54.494Z,96337.61
2018-12-06T18:12:24.356Z,96344.27
2018-12-06T18:14:54.120Z,96349.27
2018-12-06T18:17:23.199Z,96351.41
2018-12-06T18:19:52.786Z,96353.16
2018-12-06T18:22:21.907Z,96350.20
2018-12-06T18:24:51.003Z,96349.48
2018-12-06T18:27:20.202Z,96362.86
2018-12-06T18:29:49.332Z,96359.05
2018-12-06T18:32:18.565Z,96353.05
2018-12-06T18:34:47.779Z,96364.73
2018-12-06T18:37:16.911Z,96334.80
2018-12-06T18:39:46.047Z,96361.39
2018-12-06T18:42:15.145Z,96364.83
2018-12-06T18:44:44.287Z,96357.97
2018-12-06T18:47:13.620Z,96353.05
2018-12-06T18:49:42.893Z,96347.61
2018-12-06T18:52:12.018Z,96339.72
2018-12-06T18:54:41.512Z,96337.59
2018-12-06T18:57:10.589Z,96337.59
2018-12-06T18:59:39.710Z,96332.72
2018-12-06T19:02:08.911Z,96337.70
2018-12-06T19:04:37.999Z,96337.22
2018-12-06T19:07:07.294Z,96339.12
2018-12-06T19:09:36.360Z,96338.91
2018-12-06T19:12:05.444Z,96309.85
2018-12-06T19:14:34.542Z,96335.19
2018-12-06T19:17:03.654Z,96337.42
2018-12-06T19:19:37.939Z,96348.39
2018-12-06T19:22:07.139Z,96345.91
2018-12-06T19:24:36.350Z,96351.10
2018-12-06T19:27:05.655Z,96345.91
2018-12-06T19:29:34.871Z,96343.67
2018-12-06T19:32:04.279Z,96348.29
2018-12-06T19:34:33.943Z,96346.27
2018-12-06T19:37:03.107Z,96346.97
2018-12-06T19:39:32.214Z,96348.41
2018-12-06T19:42:01.307Z,96343.13
2018-12-06T19:44:33.929Z,96340.67
2018-12-06T19:47:04.826Z,96345.38
2018-12-06T19:49:35.229Z,96346.69
2018-12-06T19:52:04.744Z,96349.87
2018-12-06T19:54:38.263Z,96348.09
2018-12-06T19:57:07.355Z,96351.51
2018-12-06T19:59:36.460Z,96343.30
2018-12-06T20:02:09.568Z,96346.59
2018-12-06T20:04:38.671Z,96348.00
2018-12-06T20:07:09.503Z,96339.02
2018-12-06T20:09:38.583Z,96329.80
2018-12-06T20:12:08.161Z,96339.23
2018-12-06T20:14:37.281Z,96333.22
2018-12-06T20:17:06.356Z,96335.04
2018-12-06T20:19:35.464Z,96330.23
2018-12-06T20:22:05.079Z,96329.78
2018-12-06T20:24:34.193Z,96332.71
2018-12-06T20:27:03.286Z,96331.90
2018-12-06T20:29:32.379Z,96321.94
2018-12-06T20:32:01.599Z,96318.91
2018-12-06T20:34:30.703Z,96324.44
2018-12-06T20:36:59.898Z,96320.42
2018-12-06T20:39:29.798Z,96322.05
2018-12-06T20:41:58.888Z,96321.34
2018-12-06T20:44:28.125Z,96324.92
2018-12-06T20:46:57.236Z,96321.03
2018-12-06T20:49:26.383Z,96316.17
2018-12-06T20:51:55.711Z,96317.62
2018-12-06T20:54:24.883Z,96311.55
2018-12-06T20:56:55.117Z,96315.93
2018-12-06T20:59:24.414Z,96315.33
2018-12-06T21:01:54.896Z,96312.25
2018-12-06T21:04:24.773Z,96316.27
2018-12-06T21:06:53.876Z,96306.96
2018-12-06T21:09:23.426Z,96303.52
2018-12-06T21:11:53.034Z,96303.06
2018-12-06T21:14:22.330Z,96297.63
2018-12-06T21:16:51.690Z,96297.88
2018-12-06T21:19:20.892Z,96302.52
2018-12-06T21:21:50.036Z,96307.23
2018-12-06T21:24:19.118Z,96302.52
2018-12-06T21:26:48.298Z,96300.47
2018-12-06T21:29:17.535Z,96296.48
2018-12-06T21:31:46.682Z,96301.28
2018-12-06T21:34:15.780Z,96299.75
2018-12-06T21:36:45.142Z,96296.58
2018-12-06T21:39:14.278Z,96292.44
2018-12-06T21:41:43.374Z,96289.42
2018-12-06T21:44:12.502Z,96290.75
2018-12-06T21:46:41.582Z,96290.36
2018-12-06T21:49:10.691Z,96284.22
2018-12-06T21:51:39.853Z,96284.34
2018-12-06T21:54:09.256Z,96285.25
2018-12-06T21:56:38.359Z,96278.42
2018-12-06T21:59:07.476Z,96278.06
2018-12-06T22:01:37.106Z,96278.52
2018-12-06T22:04:06.494Z,96282.32
2018-12-06T22:06:35.642Z,96279.63
2018-12-06T22:09:07.280Z,96288.47
2018-12-06T22:11:36.404Z,96282.50
2018-12-06T22:14:05.832Z,96287.69
2018-12-06T22:16:34.928Z,96283.19
2018-12-06T22:19:04.194Z,96279.63
2018-12-06T22:21:33.294Z,96290.47
2018-12-06T22:24:02.402Z,96284.61
2018-12-06T22:26:31.485Z,96282.91
2018-12-06T22:29:01.198Z,96284.78
2018-12-06T22:31:30.404Z,96279.38
2018-12-06T22:33:59.494Z,96283.28
2018-12-06T22:36:28.680Z,96278.02
2018-12-06T22:38:57.804Z,96289.02
2018-12-06T22:41:26.903Z,96283.00
2018-12-06T22:43:55.998Z,96280.35
2018-12-06T22:46:25.170Z,96274.95
2018-12-06T22:48:54.598Z,96279.14
2018-12-06T22:51:24.463Z,96278.08
2018-12-06T22:53:53.920Z,96279.50
2018-12-06T22:56:23.152Z,96277.84
2018-12-06T22:58:52.506Z,96282.31
2018-12-06T23:01:27.415Z,96282.48
2018-12-06T23:03:56.618Z,96271.88
2018-12-06T23:06:25.722Z,96271.39
2018-12-06T23:08:54.835Z,96271.59
2018-12-06T23:11:24.038Z,96263.64
2018-12-06T23:13:53.125Z,96267.50
2018-12-06T23:16:22.336Z,96266.80
2018-12-06T23:18:51.488Z,96261.11
2018-12-06T23:21:20.702Z,96266.28
2018-12-06T23:23:49.767Z,96268.76
2018-12-06T23:26:18.883Z,96272.05
2018-12-06T23:28:48.076Z,96257.06
2018-12-06T23:31:17.402Z,96261.21
2018-12-06T23:33:46.843Z,96259.83
2018-12-06T23:36:15.988Z,96254.18
2018-12-06T23:38:45.099Z,96259.50
2018-12-06T23:41:14.297Z,96260.92
2018-12-06T23:43:43.467Z,96256.02
2018-12-06T23:46:12.566Z,96250.57
2018-12-06T23:48:41.786Z,96244.60
2018-12-06T23:51:22.269Z,96238.11
2018-12-06T23:53:51.367Z,96236.45
2018-12-06T23:56:20.459Z,96230.52
2018-12-06T23:58:49.544Z,96226.73
